sensor_id;sensor_type;location;lat;lon;timestamp;P1;durP1;ratioP1;P2;durP2;ratioP2
2850;SDS011;1433;49.976;8.342;2023-05-10T00:02:17;1.27;;;0.93;;
2850;SDS011;1433;49.976;8.342;2023-05-10T00:04:44;1.33;;;1.00;;
2850;SDS011;1433;49.976;8.342;2023-05-10T00:07:10;2.60;;;0.80;;
2850;SDS011;1433;49.976;8.342;2023-05-10T00:09:37;1.03;;;0.90;;
2850;SDS011;1433;49.976;8.342;2023-05-10T00:12:03;1.00;;;0.90;;
2850;SDS011;1433;49.976;8.342;2023-05-10T00:14:30;1.20;;;0.90;;
2850;SDS011;1433;49.976;8.342;2023-05-10T00:16:56;1.00;;;0.80;;
2850;SDS011;1433;49.976;8.342;2023-05-10T00:19:22;1.00;;;0.80;;
2850;SDS011;1433;49.976;8.342;2023-05-10T00:21:48;1.30;;;0.97;;
2850;SDS011;1433;49.976;8.342;2023-05-10T00:24:15;1.10;;;0.87;;
2850;SDS011;1433;49.976;8.342;2023-05-10T00:26:41;1.00;;;0.80;;
2850;SDS011;1433;49.976;8.342;2023-05-10T00:29:08;1.10;;;0.80;;
2850;SDS011;1433;49.976;8.342;2023-05-10T00:31:34;0.90;;;0.70;;
2850;SDS011;1433;49.976;8.342;2023-05-10T00:34:00;1.07;;;0.97;;
2850;SDS011;1433;49.976;8.342;2023-05-10T00:36:27;1.20;;;0.90;;
2850;SDS011;1433;49.976;8.342;2023-05-10T00:38:53;1.00;;;0.80;;
2850;SDS011;1433;49.976;8.342;2023-05-10T00:41:19;1.20;;;1.00;;
2850;SDS011;1433;49.976;8.342;2023-05-10T00:43:47;1.00;;;0.90;;
2850;SDS011;1433;49.976;8.342;2023-05-10T00:46:13;3.53;;;0.70;;
2850;SDS011;1433;49.976;8.342;2023-05-10T00:48:41;1.00;;;0.80;;
2850;SDS011;1433;49.976;8.342;2023-05-10T00:51:09;1.87;;;0.90;;
2850;SDS011;1433;49.976;8.342;2023-05-10T00:53:35;1.20;;;0.90;;
2850;SDS011;1433;49.976;8.342;2023-05-10T00:56:02;1.00;;;0.80;;
2850;SDS011;1433;49.976;8.342;2023-05-10T00:58:29;1.00;;;0.90;;
2850;SDS011;1433;49.976;8.342;2023-05-10T01:00:56;1.03;;;0.80;;
2850;SDS011;1433;49.976;8.342;2023-05-10T01:03:24;1.03;;;0.83;;
2850;SDS011;1433;49.976;8.342;2023-05-10T01:05:51;1.20;;;1.00;;
2850;SDS011;1433;49.976;8.342;2023-05-10T01:08:17;1.20;;;0.93;;
2850;SDS011;1433;49.976;8.342;2023-05-10T01:10:46;1.10;;;1.00;;
2850;SDS011;1433;49.976;8.342;2023-05-10T01:13:34;1.27;;;0.80;;
2850;SDS011;1433;49.976;8.342;2023-05-10T01:16:03;1.87;;;1.07;;
2850;SDS011;1433;49.976;8.342;2023-05-10T01:18:36;1.10;;;1.00;;
2850;SDS011;1433;49.976;8.342;2023-05-10T01:21:04;1.00;;;0.90;;
2850;SDS011;1433;49.976;8.342;2023-05-10T01:34:35;1.00;;;0.83;;
2850;SDS011;1433;49.976;8.342;2023-05-10T01:37:25;1.10;;;0.87;;
2850;SDS011;1433;49.976;8.342;2023-05-10T01:39:55;1.10;;;0.80;;
2850;SDS011;1433;49.976;8.342;2023-05-10T01:42:25;1.27;;;0.90;;
2850;SDS011;1433;49.976;8.342;2023-05-10T01:50:03;1.40;;;1.13;;
2850;SDS011;1433;49.976;8.342;2023-05-10T01:52:33;1.93;;;0.97;;
2850;SDS011;1433;49.976;8.342;2023-05-10T01:55:09;1.00;;;0.90;;
2850;SDS011;1433;49.976;8.342;2023-05-10T01:57:37;1.10;;;0.80;;
2850;SDS011;1433;49.976;8.342;2023-05-10T02:00:06;1.00;;;0.80;;
2850;SDS011;1433;49.976;8.342;2023-05-10T02:02:41;1.50;;;0.83;;
2850;SDS011;1433;49.976;8.342;2023-05-10T02:05:13;1.03;;;0.80;;
2850;SDS011;1433;49.976;8.342;2023-05-10T02:07:41;1.40;;;0.90;;
2850;SDS011;1433;49.976;8.342;2023-05-10T02:10:09;1.20;;;0.83;;
2850;SDS011;1433;49.976;8.342;2023-05-10T02:12:43;1.00;;;0.90;;
2850;SDS011;1433;49.976;8.342;2023-05-10T02:15:12;1.00;;;0.90;;
2850;SDS011;1433;49.976;8.342;2023-05-10T02:17:43;1.30;;;0.93;;
2850;SDS011;1433;49.976;8.342;2023-05-10T02:20:12;1.00;;;0.80;;
2850;SDS011;1433;49.976;8.342;2023-05-10T02:22:40;1.20;;;0.90;;
2850;SDS011;1433;49.976;8.342;2023-05-10T02:25:07;1.10;;;0.80;;
2850;SDS011;1433;49.976;8.342;2023-05-10T02:27:34;1.73;;;1.27;;
2850;SDS011;1433;49.976;8.342;2023-05-10T02:30:02;1.00;;;0.80;;
2850;SDS011;1433;49.976;8.342;2023-05-10T02:32:31;1.83;;;1.13;;
2850;SDS011;1433;49.976;8.342;2023-05-10T02:34:59;1.10;;;0.90;;
2850;SDS011;1433;49.976;8.342;2023-05-10T02:37:28;2.30;;;1.10;;
2850;SDS011;1433;49.976;8.342;2023-05-10T02:39:55;1.00;;;0.80;;
2850;SDS011;1433;49.976;8.342;2023-05-10T02:42:24;1.00;;;0.87;;
2850;SDS011;1433;49.976;8.342;2023-05-10T02:44:53;1.00;;;0.80;;
2850;SDS011;1433;49.976;8.342;2023-05-10T02:47:22;1.10;;;0.90;;
2850;SDS011;1433;49.976;8.342;2023-05-10T02:49:48;1.00;;;0.90;;
2850;SDS011;1433;49.976;8.342;2023-05-10T02:52:16;1.10;;;0.90;;
2850;SDS011;1433;49.976;8.342;2023-05-10T02:54:45;1.47;;;1.03;;
2850;SDS011;1433;49.976;8.342;2023-05-10T02:57:17;1.00;;;0.80;;
2850;SDS011;1433;49.976;8.342;2023-05-10T02:59:47;1.27;;;1.17;;
2850;SDS011;1433;49.976;8.342;2023-05-10T03:02:14;1.00;;;0.90;;
2850;SDS011;1433;49.976;8.342;2023-05-10T03:04:40;1.20;;;0.90;;
2850;SDS011;1433;49.976;8.342;2023-05-10T03:07:07;1.10;;;1.00;;
2850;SDS011;1433;49.976;8.342;2023-05-10T03:09:33;1.60;;;1.10;;
2850;SDS011;1433;49.976;8.342;2023-05-10T03:12:01;1.43;;;1.10;;
2850;SDS011;1433;49.976;8.342;2023-05-10T03:14:59;1.40;;;1.10;;
2850;SDS011;1433;49.976;8.342;2023-05-10T03:20:04;2.27;;;1.63;;
2850;SDS011;1433;49.976;8.342;2023-05-10T03:22:46;1.40;;;1.00;;
2850;SDS011;1433;49.976;8.342;2023-05-10T03:25:15;1.50;;;0.97;;
2850;SDS011;1433;49.976;8.342;2023-05-10T03:27:44;1.10;;;1.00;;
2850;SDS011;1433;49.976;8.342;2023-05-10T03:30:11;1.10;;;0.90;;
2850;SDS011;1433;49.976;8.342;2023-05-10T03:32:38;1.10;;;1.00;;
2850;SDS011;1433;49.976;8.342;2023-05-10T03:35:08;1.00;;;0.90;;
2850;SDS011;1433;49.976;8.342;2023-05-10T03:37:35;1.40;;;0.83;;
2850;SDS011;1433;49.976;8.342;2023-05-10T03:40:02;1.10;;;0.90;;
2850;SDS011;1433;49.976;8.342;2023-05-10T03:42:30;1.10;;;1.00;;
2850;SDS011;1433;49.976;8.342;2023-05-10T03:44:57;1.67;;;1.20;;
2850;SDS011;1433;49.976;8.342;2023-05-10T03:47:24;1.30;;;1.20;;
2850;SDS011;1433;49.976;8.342;2023-05-10T03:49:50;1.10;;;0.97;;
2850;SDS011;1433;49.976;8.342;2023-05-10T03:52:17;1.10;;;0.97;;
2850;SDS011;1433;49.976;8.342;2023-05-10T03:54:44;1.33;;;1.23;;
2850;SDS011;1433;49.976;8.342;2023-05-10T03:57:10;1.43;;;1.20;;
2850;SDS011;1433;49.976;8.342;2023-05-10T03:59:36;1.30;;;1.20;;
2850;SDS011;1433;49.976;8.342;2023-05-10T04:02:03;1.40;;;1.10;;
2850;SDS011;1433;49.976;8.342;2023-05-10T04:04:29;1.20;;;1.10;;
2850;SDS011;1433;49.976;8.342;2023-05-10T04:06:56;1.53;;;1.30;;
2850;SDS011;1433;49.976;8.342;2023-05-10T04:09:22;1.20;;;1.03;;
2850;SDS011;1433;49.976;8.342;2023-05-10T04:11:48;2.07;;;1.10;;
2850;SDS011;1433;49.976;8.342;2023-05-10T04:14:14;1.20;;;1.10;;
2850;SDS011;1433;49.976;8.342;2023-05-10T04:16:40;1.50;;;1.10;;
2850;SDS011;1433;49.976;8.342;2023-05-10T04:21:55;1.77;;;1.23;;
2850;SDS011;1433;49.976;8.342;2023-05-10T04:24:21;1.30;;;1.10;;
2850;SDS011;1433;49.976;8.342;2023-05-10T04:26:47;1.30;;;1.20;;
2850;SDS011;1433;49.976;8.342;2023-05-10T04:29:13;1.77;;;1.23;;
2850;SDS011;1433;49.976;8.342;2023-05-10T04:31:39;1.53;;;1.10;;
2850;SDS011;1433;49.976;8.342;2023-05-10T04:34:08;1.10;;;1.00;;
2850;SDS011;1433;49.976;8.342;2023-05-10T04:36:34;1.77;;;1.40;;
2850;SDS011;1433;49.976;8.342;2023-05-10T04:39:01;1.20;;;1.00;;
2850;SDS011;1433;49.976;8.342;2023-05-10T04:41:28;1.80;;;1.40;;
2850;SDS011;1433;49.976;8.342;2023-05-10T04:43:54;1.80;;;1.30;;
2850;SDS011;1433;49.976;8.342;2023-05-10T04:46:21;1.57;;;1.20;;
2850;SDS011;1433;49.976;8.342;2023-05-10T04:48:47;2.07;;;1.43;;
2850;SDS011;1433;49.976;8.342;2023-05-10T04:51:13;1.60;;;1.40;;
2850;SDS011;1433;49.976;8.342;2023-05-10T04:53:40;1.60;;;1.30;;
2850;SDS011;1433;49.976;8.342;2023-05-10T04:56:06;1.30;;;1.20;;
2850;SDS011;1433;49.976;8.342;2023-05-10T04:58:33;1.60;;;1.50;;
2850;SDS011;1433;49.976;8.342;2023-05-10T05:01:05;2.83;;;1.33;;
2850;SDS011;1433;49.976;8.342;2023-05-10T05:03:33;1.70;;;1.40;;
2850;SDS011;1433;49.976;8.342;2023-05-10T05:05:59;7.43;;;1.73;;
2850;SDS011;1433;49.976;8.342;2023-05-10T05:08:25;1.60;;;1.50;;
2850;SDS011;1433;49.976;8.342;2023-05-10T05:10:51;1.60;;;1.50;;
2850;SDS011;1433;49.976;8.342;2023-05-10T05:13:17;1.30;;;1.20;;
2850;SDS011;1433;49.976;8.342;2023-05-10T05:15:44;1.87;;;1.40;;
2850;SDS011;1433;49.976;8.342;2023-05-10T05:18:10;1.80;;;1.50;;
2850;SDS011;1433;49.976;8.342;2023-05-10T05:20:36;1.60;;;1.20;;
2850;SDS011;1433;49.976;8.342;2023-05-10T05:23:02;1.60;;;1.37;;
2850;SDS011;1433;49.976;8.342;2023-05-10T05:25:28;1.57;;;1.33;;
2850;SDS011;1433;49.976;8.342;2023-05-10T05:27:54;7.97;;;1.87;;
2850;SDS011;1433;49.976;8.342;2023-05-10T05:30:21;2.30;;;1.30;;
2850;SDS011;1433;49.976;8.342;2023-05-10T05:32:47;1.67;;;1.57;;
2850;SDS011;1433;49.976;8.342;2023-05-10T05:35:13;1.63;;;1.53;;
2850;SDS011;1433;49.976;8.342;2023-05-10T05:37:39;2.53;;;2.07;;
2850;SDS011;1433;49.976;8.342;2023-05-10T05:40:05;2.07;;;1.60;;
2850;SDS011;1433;49.976;8.342;2023-05-10T05:42:32;3.67;;;1.93;;
2850;SDS011;1433;49.976;8.342;2023-05-10T05:44:58;2.20;;;1.73;;
2850;SDS011;1433;49.976;8.342;2023-05-10T05:47:24;2.23;;;1.73;;
2850;SDS011;1433;49.976;8.342;2023-05-10T05:49:50;2.23;;;1.40;;
2850;SDS011;1433;49.976;8.342;2023-05-10T05:52:17;2.03;;;1.83;;
2850;SDS011;1433;49.976;8.342;2023-05-10T05:54:43;3.93;;;2.00;;
2850;SDS011;1433;49.976;8.342;2023-05-10T05:57:09;1.90;;;1.60;;
2850;SDS011;1433;49.976;8.342;2023-05-10T05:59:35;2.07;;;1.73;;
2850;SDS011;1433;49.976;8.342;2023-05-10T06:02:02;3.20;;;1.47;;
2850;SDS011;1433;49.976;8.342;2023-05-10T06:04:28;2.37;;;1.67;;
2850;SDS011;1433;49.976;8.342;2023-05-10T06:06:54;1.40;;;1.30;;
2850;SDS011;1433;49.976;8.342;2023-05-10T06:09:20;3.00;;;1.90;;
2850;SDS011;1433;49.976;8.342;2023-05-10T06:11:46;1.60;;;1.50;;
2850;SDS011;1433;49.976;8.342;2023-05-10T06:14:12;2.37;;;1.40;;
2850;SDS011;1433;49.976;8.342;2023-05-10T06:16:39;3.20;;;1.83;;
2850;SDS011;1433;49.976;8.342;2023-05-10T06:19:05;2.10;;;1.90;;
2850;SDS011;1433;49.976;8.342;2023-05-10T06:21:31;2.17;;;1.73;;
2850;SDS011;1433;49.976;8.342;2023-05-10T06:23:57;2.00;;;1.70;;
2850;SDS011;1433;49.976;8.342;2023-05-10T06:26:23;4.07;;;2.03;;
2850;SDS011;1433;49.976;8.342;2023-05-10T06:28:49;1.67;;;1.57;;
2850;SDS011;1433;49.976;8.342;2023-05-10T06:31:16;1.67;;;1.57;;
2850;SDS011;1433;49.976;8.342;2023-05-10T06:33:42;2.03;;;1.70;;
2850;SDS011;1433;49.976;8.342;2023-05-10T06:36:08;3.67;;;1.80;;
2850;SDS011;1433;49.976;8.342;2023-05-10T06:38:34;3.63;;;1.43;;
2850;SDS011;1433;49.976;8.342;2023-05-10T06:41:01;2.30;;;2.10;;
2850;SDS011;1433;49.976;8.342;2023-05-10T06:43:27;3.53;;;1.73;;
2850;SDS011;1433;49.976;8.342;2023-05-10T06:45:54;2.50;;;1.93;;
2850;SDS011;1433;49.976;8.342;2023-05-10T06:48:21;3.30;;;3.10;;
2850;SDS011;1433;49.976;8.342;2023-05-10T06:50:47;3.27;;;2.20;;
2850;SDS011;1433;49.976;8.342;2023-05-10T06:53:13;1.90;;;1.77;;
2850;SDS011;1433;49.976;8.342;2023-05-10T06:55:39;2.37;;;1.57;;
2850;SDS011;1433;49.976;8.342;2023-05-10T06:58:05;3.23;;;1.83;;
2850;SDS011;1433;49.976;8.342;2023-05-10T07:00:31;2.50;;;2.30;;
2850;SDS011;1433;49.976;8.342;2023-05-10T07:02:58;2.40;;;1.53;;
2850;SDS011;1433;49.976;8.342;2023-05-10T07:05:24;1.80;;;1.50;;
2850;SDS011;1433;49.976;8.342;2023-05-10T07:07:50;2.30;;;1.77;;
2850;SDS011;1433;49.976;8.342;2023-05-10T07:10:17;1.93;;;1.73;;
2850;SDS011;1433;49.976;8.342;2023-05-10T07:12:43;2.10;;;1.50;;
2850;SDS011;1433;49.976;8.342;2023-05-10T07:15:10;1.40;;;1.20;;
2850;SDS011;1433;49.976;8.342;2023-05-10T07:17:36;1.60;;;1.50;;
2850;SDS011;1433;49.976;8.342;2023-05-10T07:20:03;2.17;;;1.50;;
2850;SDS011;1433;49.976;8.342;2023-05-10T07:22:29;1.83;;;1.30;;
2850;SDS011;1433;49.976;8.342;2023-05-10T07:24:55;1.33;;;1.17;;
2850;SDS011;1433;49.976;8.342;2023-05-10T07:27:21;1.73;;;1.43;;
2850;SDS011;1433;49.976;8.342;2023-05-10T07:29:47;2.27;;;1.53;;
2850;SDS011;1433;49.976;8.342;2023-05-10T07:32:14;2.30;;;1.40;;
2850;SDS011;1433;49.976;8.342;2023-05-10T07:34:40;3.43;;;1.30;;
2850;SDS011;1433;49.976;8.342;2023-05-10T07:37:06;3.43;;;1.93;;
2850;SDS011;1433;49.976;8.342;2023-05-10T07:39:33;2.80;;;1.20;;
2850;SDS011;1433;49.976;8.342;2023-05-10T07:41:59;5.53;;;1.57;;
2850;SDS011;1433;49.976;8.342;2023-05-10T07:44:25;1.23;;;1.00;;
2850;SDS011;1433;49.976;8.342;2023-05-10T07:46:51;3.43;;;1.73;;
2850;SDS011;1433;49.976;8.342;2023-05-10T07:49:19;4.50;;;1.60;;
2850;SDS011;1433;49.976;8.342;2023-05-10T07:51:45;4.17;;;1.63;;
2850;SDS011;1433;49.976;8.342;2023-05-10T07:54:11;3.30;;;1.73;;
2850;SDS011;1433;49.976;8.342;2023-05-10T07:56:38;2.87;;;1.37;;
2850;SDS011;1433;49.976;8.342;2023-05-10T07:59:05;1.67;;;1.57;;
2850;SDS011;1433;49.976;8.342;2023-05-10T08:01:33;1.80;;;1.47;;
2850;SDS011;1433;49.976;8.342;2023-05-10T08:04:00;1.87;;;1.33;;
2850;SDS011;1433;49.976;8.342;2023-05-10T08:06:27;2.70;;;1.27;;
2850;SDS011;1433;49.976;8.342;2023-05-10T08:08:55;1.50;;;1.30;;
2850;SDS011;1433;49.976;8.342;2023-05-10T08:11:22;3.10;;;1.50;;
2850;SDS011;1433;49.976;8.342;2023-05-10T08:13:49;1.37;;;1.27;;
2850;SDS011;1433;49.976;8.342;2023-05-10T08:16:20;2.70;;;1.67;;
2850;SDS011;1433;49.976;8.342;2023-05-10T08:18:48;2.00;;;1.80;;
2850;SDS011;1433;49.976;8.342;2023-05-10T08:21:16;1.60;;;1.50;;
2850;SDS011;1433;49.976;8.342;2023-05-10T08:23:42;1.80;;;1.40;;
2850;SDS011;1433;49.976;8.342;2023-05-10T08:26:09;1.77;;;1.27;;
2850;SDS011;1433;49.976;8.342;2023-05-10T08:28:44;1.90;;;1.80;;
2850;SDS011;1433;49.976;8.342;2023-05-10T08:31:11;1.80;;;1.47;;
2850;SDS011;1433;49.976;8.342;2023-05-10T08:33:38;1.57;;;1.40;;
2850;SDS011;1433;49.976;8.342;2023-05-10T08:36:04;2.10;;;1.90;;
2850;SDS011;1433;49.976;8.342;2023-05-10T08:38:31;4.43;;;1.87;;
2850;SDS011;1433;49.976;8.342;2023-05-10T08:40:58;1.93;;;1.73;;
2850;SDS011;1433;49.976;8.342;2023-05-10T08:43:26;1.63;;;1.53;;
2850;SDS011;1433;49.976;8.342;2023-05-10T08:45:55;1.50;;;1.40;;
2850;SDS011;1433;49.976;8.342;2023-05-10T08:48:25;1.90;;;1.30;;
2850;SDS011;1433;49.976;8.342;2023-05-10T08:50:54;2.97;;;1.73;;
2850;SDS011;1433;49.976;8.342;2023-05-10T08:53:24;2.60;;;1.20;;
2850;SDS011;1433;49.976;8.342;2023-05-10T08:55:52;1.80;;;1.70;;
2850;SDS011;1433;49.976;8.342;2023-05-10T08:58:19;5.87;;;1.90;;
2850;SDS011;1433;49.976;8.342;2023-05-10T09:00:46;3.50;;;1.60;;
2850;SDS011;1433;49.976;8.342;2023-05-10T09:03:14;1.10;;;1.00;;
2850;SDS011;1433;49.976;8.342;2023-05-10T09:05:40;1.40;;;1.20;;
2850;SDS011;1433;49.976;8.342;2023-05-10T09:08:08;2.17;;;1.10;;
2850;SDS011;1433;49.976;8.342;2023-05-10T09:10:34;2.87;;;1.47;;
2850;SDS011;1433;49.976;8.342;2023-05-10T09:13:01;2.90;;;1.73;;
2850;SDS011;1433;49.976;8.342;2023-05-10T09:15:28;1.97;;;1.63;;
2850;SDS011;1433;49.976;8.342;2023-05-10T09:17:54;1.50;;;1.40;;
2850;SDS011;1433;49.976;8.342;2023-05-10T09:20:21;3.50;;;1.73;;
2850;SDS011;1433;49.976;8.342;2023-05-10T09:22:48;2.40;;;1.60;;
2850;SDS011;1433;49.976;8.342;2023-05-10T09:25:15;4.50;;;1.50;;
2850;SDS011;1433;49.976;8.342;2023-05-10T09:27:46;2.13;;;1.80;;
2850;SDS011;1433;49.976;8.342;2023-05-10T09:30:17;2.23;;;2.00;;
2850;SDS011;1433;49.976;8.342;2023-05-10T09:32:52;3.10;;;2.40;;
2850;SDS011;1433;49.976;8.342;2023-05-10T09:35:19;2.23;;;1.90;;
2850;SDS011;1433;49.976;8.342;2023-05-10T09:37:48;1.90;;;1.80;;
2850;SDS011;1433;49.976;8.342;2023-05-10T09:40:20;1.83;;;1.60;;
2850;SDS011;1433;49.976;8.342;2023-05-10T09:45:34;3.90;;;1.47;;
2850;SDS011;1433;49.976;8.342;2023-05-10T09:48:01;3.13;;;1.63;;
2850;SDS011;1433;49.976;8.342;2023-05-10T09:50:28;1.27;;;1.17;;
2850;SDS011;1433;49.976;8.342;2023-05-10T09:52:56;3.10;;;1.20;;
2850;SDS011;1433;49.976;8.342;2023-05-10T09:55:45;1.80;;;1.17;;
2850;SDS011;1433;49.976;8.342;2023-05-10T09:58:12;1.90;;;1.20;;
2850;SDS011;1433;49.976;8.342;2023-05-10T10:00:40;2.77;;;1.43;;
2850;SDS011;1433;49.976;8.342;2023-05-10T10:03:14;1.47;;;1.30;;
2850;SDS011;1433;49.976;8.342;2023-05-10T10:05:42;1.63;;;1.10;;
2850;SDS011;1433;49.976;8.342;2023-05-10T10:08:10;2.70;;;1.10;;
2850;SDS011;1433;49.976;8.342;2023-05-10T10:10:38;2.27;;;1.20;;
2850;SDS011;1433;49.976;8.342;2023-05-10T10:13:06;1.30;;;1.03;;
2850;SDS011;1433;49.976;8.342;2023-05-10T10:15:33;1.40;;;1.10;;
2850;SDS011;1433;49.976;8.342;2023-05-10T10:18:00;1.40;;;1.10;;
2850;SDS011;1433;49.976;8.342;2023-05-10T10:20:27;1.10;;;0.93;;
2850;SDS011;1433;49.976;8.342;2023-05-10T10:22:54;1.40;;;1.30;;
2850;SDS011;1433;49.976;8.342;2023-05-10T10:25:20;1.10;;;0.90;;
2850;SDS011;1433;49.976;8.342;2023-05-10T10:30:42;1.57;;;1.33;;
2850;SDS011;1433;49.976;8.342;2023-05-10T10:36:01;1.30;;;1.20;;
2850;SDS011;1433;49.976;8.342;2023-05-10T10:47:04;1.20;;;1.00;;
2850;SDS011;1433;49.976;8.342;2023-05-10T10:49:48;1.63;;;1.00;;
2850;SDS011;1433;49.976;8.342;2023-05-10T10:52:56;5.30;;;1.00;;
2850;SDS011;1433;49.976;8.342;2023-05-10T10:55:26;1.07;;;0.97;;
2850;SDS011;1433;49.976;8.342;2023-05-10T10:57:55;1.07;;;0.97;;
2850;SDS011;1433;49.976;8.342;2023-05-10T11:00:30;1.87;;;1.00;;
2850;SDS011;1433;49.976;8.342;2023-05-10T11:02:58;1.30;;;1.10;;
2850;SDS011;1433;49.976;8.342;2023-05-10T11:05:40;1.37;;;1.17;;
2850;SDS011;1433;49.976;8.342;2023-05-10T11:08:13;3.93;;;1.40;;
2850;SDS011;1433;49.976;8.342;2023-05-10T11:13:46;1.40;;;1.10;;
2850;SDS011;1433;49.976;8.342;2023-05-10T11:16:16;1.00;;;0.83;;
2850;SDS011;1433;49.976;8.342;2023-05-10T11:21:31;1.00;;;0.90;;
2850;SDS011;1433;49.976;8.342;2023-05-10T11:23:59;1.27;;;1.00;;
2850;SDS011;1433;49.976;8.342;2023-05-10T11:26:35;1.10;;;1.00;;
2850;SDS011;1433;49.976;8.342;2023-05-10T11:29:02;1.30;;;1.03;;
2850;SDS011;1433;49.976;8.342;2023-05-10T11:31:30;1.00;;;0.90;;
2850;SDS011;1433;49.976;8.342;2023-05-10T11:33:58;1.20;;;1.00;;
2850;SDS011;1433;49.976;8.342;2023-05-10T11:36:28;2.03;;;1.10;;
2850;SDS011;1433;49.976;8.342;2023-05-10T11:39:01;1.00;;;0.90;;
2850;SDS011;1433;49.976;8.342;2023-05-10T11:41:30;1.10;;;0.90;;
2850;SDS011;1433;49.976;8.342;2023-05-10T11:43:57;1.10;;;0.97;;
2850;SDS011;1433;49.976;8.342;2023-05-10T11:46:24;1.00;;;0.90;;
2850;SDS011;1433;49.976;8.342;2023-05-10T11:48:53;1.80;;;1.00;;
2850;SDS011;1433;49.976;8.342;2023-05-10T11:51:21;1.20;;;1.00;;
2850;SDS011;1433;49.976;8.342;2023-05-10T11:53:49;1.20;;;0.97;;
2850;SDS011;1433;49.976;8.342;2023-05-10T11:56:18;1.10;;;1.00;;
2850;SDS011;1433;49.976;8.342;2023-05-10T11:58:51;2.90;;;1.30;;
2850;SDS011;1433;49.976;8.342;2023-05-10T12:01:19;1.10;;;0.90;;
2850;SDS011;1433;49.976;8.342;2023-05-10T12:03:46;1.10;;;1.00;;
2850;SDS011;1433;49.976;8.342;2023-05-10T12:06:13;1.27;;;1.10;;
2850;SDS011;1433;49.976;8.342;2023-05-10T12:08:43;1.00;;;0.83;;
2850;SDS011;1433;49.976;8.342;2023-05-10T12:11:09;1.10;;;0.90;;
2850;SDS011;1433;49.976;8.342;2023-05-10T12:13:39;2.00;;;0.97;;
2850;SDS011;1433;49.976;8.342;2023-05-10T12:16:13;2.13;;;1.00;;
2850;SDS011;1433;49.976;8.342;2023-05-10T12:18:42;1.10;;;0.83;;
2850;SDS011;1433;49.976;8.342;2023-05-10T12:21:11;5.63;;;0.90;;
2850;SDS011;1433;49.976;8.342;2023-05-10T12:23:38;1.10;;;1.00;;
2850;SDS011;1433;49.976;8.342;2023-05-10T12:26:05;1.53;;;1.17;;
2850;SDS011;1433;49.976;8.342;2023-05-10T12:28:32;1.13;;;1.00;;
2850;SDS011;1433;49.976;8.342;2023-05-10T12:30:59;1.10;;;1.00;;
2850;SDS011;1433;49.976;8.342;2023-05-10T12:33:25;1.37;;;1.20;;
2850;SDS011;1433;49.976;8.342;2023-05-10T12:35:52;2.13;;;1.00;;
2850;SDS011;1433;49.976;8.342;2023-05-10T12:40:56;1.10;;;0.90;;
2850;SDS011;1433;49.976;8.342;2023-05-10T12:43:23;2.13;;;1.03;;
2850;SDS011;1433;49.976;8.342;2023-05-10T12:45:50;1.50;;;1.10;;
2850;SDS011;1433;49.976;8.342;2023-05-10T12:48:16;1.77;;;1.00;;
2850;SDS011;1433;49.976;8.342;2023-05-10T12:50:43;1.10;;;0.90;;
2850;SDS011;1433;49.976;8.342;2023-05-10T12:53:09;2.17;;;1.00;;
2850;SDS011;1433;49.976;8.342;2023-05-10T12:55:35;1.90;;;0.93;;
2850;SDS011;1433;49.976;8.342;2023-05-10T12:58:01;1.23;;;1.13;;
2850;SDS011;1433;49.976;8.342;2023-05-10T13:00:28;1.53;;;1.00;;
2850;SDS011;1433;49.976;8.342;2023-05-10T13:02:54;1.70;;;1.23;;
2850;SDS011;1433;49.976;8.342;2023-05-10T13:05:20;1.00;;;0.90;;
2850;SDS011;1433;49.976;8.342;2023-05-10T13:07:47;1.00;;;0.90;;
2850;SDS011;1433;49.976;8.342;2023-05-10T13:10:13;1.40;;;1.20;;
2850;SDS011;1433;49.976;8.342;2023-05-10T13:12:40;1.57;;;1.00;;
2850;SDS011;1433;49.976;8.342;2023-05-10T13:15:07;1.00;;;0.90;;
2850;SDS011;1433;49.976;8.342;2023-05-10T13:17:33;1.67;;;1.07;;
2850;SDS011;1433;49.976;8.342;2023-05-10T13:19:59;1.57;;;1.20;;
2850;SDS011;1433;49.976;8.342;2023-05-10T13:22:26;2.60;;;1.10;;
2850;SDS011;1433;49.976;8.342;2023-05-10T13:24:52;7.23;;;1.40;;
2850;SDS011;1433;49.976;8.342;2023-05-10T13:27:18;1.93;;;1.20;;
2850;SDS011;1433;49.976;8.342;2023-05-10T13:29:44;2.03;;;0.90;;
2850;SDS011;1433;49.976;8.342;2023-05-10T13:32:10;1.80;;;1.00;;
2850;SDS011;1433;49.976;8.342;2023-05-10T13:34:37;2.47;;;1.50;;
2850;SDS011;1433;49.976;8.342;2023-05-10T13:37:03;2.60;;;1.20;;
2850;SDS011;1433;49.976;8.342;2023-05-10T13:39:29;3.13;;;1.20;;
2850;SDS011;1433;49.976;8.342;2023-05-10T13:41:57;2.40;;;1.03;;
2850;SDS011;1433;49.976;8.342;2023-05-10T13:44:23;1.60;;;1.07;;
2850;SDS011;1433;49.976;8.342;2023-05-10T13:46:50;2.90;;;1.30;;
2850;SDS011;1433;49.976;8.342;2023-05-10T13:49:16;4.67;;;1.10;;
2850;SDS011;1433;49.976;8.342;2023-05-10T13:51:42;1.10;;;1.00;;
2850;SDS011;1433;49.976;8.342;2023-05-10T13:54:09;1.20;;;1.10;;
2850;SDS011;1433;49.976;8.342;2023-05-10T13:56:35;2.17;;;1.33;;
2850;SDS011;1433;49.976;8.342;2023-05-10T13:59:01;1.97;;;0.90;;
2850;SDS011;1433;49.976;8.342;2023-05-10T14:01:27;1.20;;;1.10;;
2850;SDS011;1433;49.976;8.342;2023-05-10T14:03:53;1.00;;;0.90;;
2850;SDS011;1433;49.976;8.342;2023-05-10T14:06:20;1.07;;;0.97;;
2850;SDS011;1433;49.976;8.342;2023-05-10T14:08:46;1.20;;;1.00;;
2850;SDS011;1433;49.976;8.342;2023-05-10T14:11:12;2.37;;;1.10;;
2850;SDS011;1433;49.976;8.342;2023-05-10T14:13:39;1.10;;;0.90;;
2850;SDS011;1433;49.976;8.342;2023-05-10T14:16:05;1.30;;;1.03;;
2850;SDS011;1433;49.976;8.342;2023-05-10T14:18:32;1.10;;;0.90;;
2850;SDS011;1433;49.976;8.342;2023-05-10T14:20:58;1.30;;;1.20;;
2850;SDS011;1433;49.976;8.342;2023-05-10T14:23:24;1.10;;;1.00;;
2850;SDS011;1433;49.976;8.342;2023-05-10T14:25:51;2.27;;;1.20;;
2850;SDS011;1433;49.976;8.342;2023-05-10T14:28:18;1.97;;;0.97;;
2850;SDS011;1433;49.976;8.342;2023-05-10T14:30:45;1.83;;;0.90;;
2850;SDS011;1433;49.976;8.342;2023-05-10T14:33:11;1.13;;;1.00;;
2850;SDS011;1433;49.976;8.342;2023-05-10T14:35:37;1.10;;;1.00;;
2850;SDS011;1433;49.976;8.342;2023-05-10T14:38:03;2.40;;;1.20;;
2850;SDS011;1433;49.976;8.342;2023-05-10T14:40:29;1.30;;;1.00;;
2850;SDS011;1433;49.976;8.342;2023-05-10T14:42:56;4.93;;;1.40;;
2850;SDS011;1433;49.976;8.342;2023-05-10T14:45:22;1.00;;;0.90;;
2850;SDS011;1433;49.976;8.342;2023-05-10T14:47:49;3.20;;;1.20;;
2850;SDS011;1433;49.976;8.342;2023-05-10T14:50:15;1.13;;;1.03;;
2850;SDS011;1433;49.976;8.342;2023-05-10T14:52:43;1.00;;;0.90;;
2850;SDS011;1433;49.976;8.342;2023-05-10T14:55:10;1.10;;;1.00;;
2850;SDS011;1433;49.976;8.342;2023-05-10T14:57:36;2.03;;;1.07;;
2850;SDS011;1433;49.976;8.342;2023-05-10T15:00:03;1.47;;;1.10;;
2850;SDS011;1433;49.976;8.342;2023-05-10T15:02:30;2.13;;;1.07;;
2850;SDS011;1433;49.976;8.342;2023-05-10T15:04:56;1.73;;;1.17;;
2850;SDS011;1433;49.976;8.342;2023-05-10T15:07:23;1.30;;;1.20;;
2850;SDS011;1433;49.976;8.342;2023-05-10T15:09:50;1.10;;;1.00;;
2850;SDS011;1433;49.976;8.342;2023-05-10T15:12:18;2.07;;;1.33;;
2850;SDS011;1433;49.976;8.342;2023-05-10T15:14:44;1.17;;;1.07;;
2850;SDS011;1433;49.976;8.342;2023-05-10T15:17:13;1.40;;;1.10;;
2850;SDS011;1433;49.976;8.342;2023-05-10T15:19:41;1.67;;;1.30;;
2850;SDS011;1433;49.976;8.342;2023-05-10T15:22:08;1.70;;;1.10;;
2850;SDS011;1433;49.976;8.342;2023-05-10T15:24:35;4.60;;;1.07;;
2850;SDS011;1433;49.976;8.342;2023-05-10T15:27:01;2.07;;;1.20;;
2850;SDS011;1433;49.976;8.342;2023-05-10T15:29:27;3.10;;;1.23;;
2850;SDS011;1433;49.976;8.342;2023-05-10T15:31:53;1.30;;;1.13;;
2850;SDS011;1433;49.976;8.342;2023-05-10T15:34:19;1.00;;;0.90;;
2850;SDS011;1433;49.976;8.342;2023-05-10T15:36:45;1.20;;;1.10;;
2850;SDS011;1433;49.976;8.342;2023-05-10T15:39:12;3.10;;;1.00;;
2850;SDS011;1433;49.976;8.342;2023-05-10T15:41:38;2.23;;;1.23;;
2850;SDS011;1433;49.976;8.342;2023-05-10T15:44:04;2.63;;;1.37;;
2850;SDS011;1433;49.976;8.342;2023-05-10T15:46:30;1.53;;;1.10;;
2850;SDS011;1433;49.976;8.342;2023-05-10T15:48:57;2.83;;;1.50;;
2850;SDS011;1433;49.976;8.342;2023-05-10T15:51:24;1.23;;;1.00;;
2850;SDS011;1433;49.976;8.342;2023-05-10T15:53:51;4.83;;;1.73;;
2850;SDS011;1433;49.976;8.342;2023-05-10T15:56:17;1.40;;;1.10;;
2850;SDS011;1433;49.976;8.342;2023-05-10T15:58:43;1.37;;;1.03;;
2850;SDS011;1433;49.976;8.342;2023-05-10T16:01:09;1.20;;;1.10;;
2850;SDS011;1433;49.976;8.342;2023-05-10T16:03:38;1.63;;;1.00;;
2850;SDS011;1433;49.976;8.342;2023-05-10T16:06:05;2.17;;;1.00;;